createdAt,value
2022-10-06T00:02:11.415Z,0.77
2022-10-06T00:04:37.974Z,0.80
2022-10-06T00:07:04.443Z,1.00
2022-10-06T00:09:30.982Z,0.70
2022-10-06T00:11:57.447Z,0.60
2022-10-06T00:14:25.022Z,0.70
2022-10-06T00:16:52.386Z,1.10
2022-10-06T00:19:18.807Z,0.97
2022-10-06T00:21:45.278Z,0.80
2022-10-06T00:24:12.310Z,0.70
2022-10-06T00:26:39.154Z,0.70
2022-10-06T00:29:05.810Z,1.00
2022-10-06T00:31:34.513Z,0.80
2022-10-06T00:34:01.106Z,0.70
2022-10-06T00:36:28.358Z,0.70
2022-10-06T00:38:55.686Z,0.80
2022-10-06T00:41:22.165Z,0.80
2022-10-06T00:43:51.792Z,0.60
2022-10-06T00:46:21.973Z,0.93
2022-10-06T00:48:51.159Z,0.70
2022-10-06T00:51:19.110Z,0.90
2022-10-06T00:53:45.787Z,0.87
2022-10-06T00:56:12.497Z,0.70
2022-10-06T00:58:40.606Z,0.83
2022-10-06T01:01:08.808Z,0.83
2022-10-06T01:03:37.183Z,1.20
2022-10-06T01:06:05.051Z,0.93
2022-10-06T01:08:32.569Z,0.80
2022-10-06T01:10:59.158Z,1.00
2022-10-06T01:13:29.201Z,1.10
2022-10-06T01:16:15.347Z,0.70
2022-10-06T01:18:42.862Z,0.93
2022-10-06T01:21:12.059Z,0.90
2022-10-06T01:23:43.444Z,0.77
2022-10-06T01:26:11.142Z,0.87
2022-10-06T01:28:38.676Z,1.00
2022-10-06T01:31:06.582Z,1.30
2022-10-06T01:33:33.195Z,1.17
2022-10-06T01:35:59.700Z,0.93
2022-10-06T01:38:26.854Z,1.20
2022-10-06T01:40:58.774Z,0.90
2022-10-06T01:43:25.516Z,0.80
2022-10-06T01:45:53.473Z,1.37
2022-10-06T01:48:20.072Z,1.33
2022-10-06T01:50:47.843Z,1.00
2022-10-06T01:53:14.434Z,1.20
2022-10-06T01:55:41.400Z,1.20
2022-10-06T01:58:08.755Z,1.00
2022-10-06T02:00:36.065Z,1.40
2022-10-06T02:03:02.982Z,1.80
2022-10-06T02:05:29.515Z,1.07
2022-10-06T02:07:57.463Z,1.20
2022-10-06T02:10:24.055Z,1.00
2022-10-06T02:12:52.631Z,1.40
2022-10-06T02:15:21.218Z,1.30
2022-10-06T02:17:48.043Z,1.20
2022-10-06T02:20:15.382Z,0.90
2022-10-06T02:22:44.395Z,1.10
2022-10-06T02:25:12.122Z,1.10
2022-10-06T02:27:40.074Z,1.30
2022-10-06T02:30:10.487Z,1.60
2022-10-06T02:32:37.982Z,1.70
2022-10-06T02:35:06.580Z,1.30
2022-10-06T02:37:34.405Z,1.20
2022-10-06T02:40:02.303Z,1.63
2022-10-06T02:42:30.481Z,1.33
2022-10-06T02:44:58.997Z,1.10
2022-10-06T02:47:25.698Z,1.23
2022-10-06T02:49:53.363Z,1.40
2022-10-06T02:52:20.068Z,1.87
2022-10-06T02:54:47.867Z,1.33
2022-10-06T02:57:15.657Z,1.33
2022-10-06T02:59:43.381Z,1.53
2022-10-06T03:02:09.981Z,1.23
2022-10-06T03:04:36.580Z,1.30
2022-10-06T03:07:03.171Z,1.43
2022-10-06T03:09:34.875Z,1.50
2022-10-06T03:12:01.693Z,1.60
2022-10-06T03:14:36.803Z,1.47
2022-10-06T03:17:04.620Z,1.87
2022-10-06T03:19:31.438Z,2.50
2022-10-06T03:21:58.916Z,1.63
2022-10-06T03:24:34.698Z,1.60
2022-10-06T03:27:03.222Z,1.70
2022-10-06T03:29:31.056Z,1.70
2022-10-06T03:31:58.494Z,1.63
2022-10-06T03:34:25.376Z,1.37
2022-10-06T03:36:52.652Z,1.70
2022-10-06T03:39:21.894Z,1.53
2022-10-06T03:41:49.825Z,1.30
2022-10-06T03:44:16.411Z,1.40
2022-10-06T03:46:43.526Z,1.73
2022-10-06T03:49:10.658Z,1.70
2022-10-06T03:51:41.012Z,1.60
2022-10-06T03:54:15.629Z,2.00
2022-10-06T03:56:44.560Z,1.80
2022-10-06T03:59:13.895Z,1.90
2022-10-06T04:01:45.273Z,1.50
2022-10-06T04:04:22.515Z,1.50
2022-10-06T04:06:52.699Z,1.70
2022-10-06T04:09:20.474Z,1.30
2022-10-06T04:11:47.514Z,1.47
2022-10-06T04:14:15.413Z,1.93
2022-10-06T04:16:46.875Z,1.57
2022-10-06T04:19:17.142Z,1.30
2022-10-06T04:21:47.986Z,1.57
2022-10-06T04:24:19.378Z,1.70
2022-10-06T04:26:50.957Z,1.43
2022-10-06T04:29:18.740Z,1.50
2022-10-06T04:31:51.246Z,1.47
2022-10-06T04:34:32.886Z,1.90
2022-10-06T04:37:04.748Z,2.20
2022-10-06T04:39:31.631Z,1.50
2022-10-06T04:41:58.171Z,1.53
2022-10-06T04:44:28.592Z,1.80
2022-10-06T04:46:57.972Z,1.60
2022-10-06T04:49:24.981Z,1.70
2022-10-06T04:51:56.320Z,1.87
2022-10-06T04:54:24.427Z,1.40
2022-10-06T04:56:56.709Z,2.00
2022-10-06T04:59:44.571Z,1.27
2022-10-06T05:02:14.479Z,2.00
2022-10-06T05:04:42.272Z,1.60
2022-10-06T05:07:09.369Z,1.60
2022-10-06T05:09:38.213Z,1.77
2022-10-06T05:12:04.827Z,2.00
2022-10-06T05:14:33.371Z,2.00
2022-10-06T05:17:00.665Z,1.80
2022-10-06T05:19:28.495Z,1.80
2022-10-06T05:21:56.342Z,2.00
2022-10-06T05:24:25.714Z,2.20
2022-10-06T05:26:54.774Z,2.30
2022-10-06T05:29:22.922Z,1.97
2022-10-06T05:31:51.303Z,1.83
2022-10-06T05:34:18.903Z,2.03
2022-10-06T05:36:46.470Z,1.87
2022-10-06T05:39:13.859Z,2.40
2022-10-06T05:41:47.224Z,2.23
2022-10-06T05:44:14.680Z,1.77
2022-10-06T05:46:42.955Z,1.90
2022-10-06T05:49:10.504Z,2.23
2022-10-06T05:51:41.420Z,2.03
2022-10-06T05:54:14.334Z,2.43
2022-10-06T05:56:40.815Z,2.67
2022-10-06T05:59:08.431Z,2.63
2022-10-06T06:01:36.652Z,2.53
2022-10-06T06:04:08.535Z,2.40
2022-10-06T06:06:41.681Z,2.27
2022-10-06T06:09:17.407Z,2.90
2022-10-06T06:11:48.227Z,1.97
2022-10-06T06:14:17.797Z,2.80
2022-10-06T06:16:45.353Z,2.30
2022-10-06T06:19:13.493Z,2.33
2022-10-06T06:21:42.581Z,2.43
2022-10-06T06:24:10.078Z,2.30
2022-10-06T06:26:39.959Z,2.37
2022-10-06T06:29:06.610Z,2.10
2022-10-06T06:31:39.677Z,2.33
2022-10-06T06:34:08.308Z,2.27
2022-10-06T06:36:37.005Z,2.67
2022-10-06T06:39:08.692Z,2.40
2022-10-06T06:41:39.835Z,2.77
2022-10-06T06:44:13.468Z,2.93
2022-10-06T06:46:49.549Z,2.17
2022-10-06T06:49:21.269Z,2.60
2022-10-06T06:51:55.903Z,2.47
2022-10-06T06:54:25.135Z,2.47
2022-10-06T06:56:57.769Z,2.40
2022-10-06T06:59:26.271Z,2.57
2022-10-06T07:01:57.265Z,2.93
2022-10-06T07:04:24.823Z,2.80
2022-10-06T07:06:58.482Z,2.50
2022-10-06T07:09:29.114Z,2.83
2022-10-06T07:12:04.050Z,2.73
2022-10-06T07:14:31.367Z,2.37
2022-10-06T07:17:17.717Z,2.20
2022-10-06T07:19:51.097Z,2.47
2022-10-06T07:22:39.501Z,2.67
2022-10-06T07:25:25.314Z,2.20
2022-10-06T07:28:00.939Z,2.37
2022-10-06T07:30:35.008Z,2.67
2022-10-06T07:33:10.388Z,2.67
2022-10-06T07:35:38.916Z,2.63
2022-10-06T07:38:07.926Z,2.87
2022-10-06T07:43:30.490Z,3.17
2022-10-06T07:45:59.141Z,2.90
2022-10-06T07:48:38.501Z,2.57
2022-10-06T07:51:10.952Z,2.73
2022-10-06T07:53:39.144Z,3.07
2022-10-06T07:56:22.460Z,2.63
2022-10-06T07:58:52.662Z,2.60
2022-10-06T08:01:20.284Z,2.90
2022-10-06T08:03:51.318Z,2.17
2022-10-06T08:06:27.009Z,3.00
2022-10-06T08:08:55.028Z,3.03
2022-10-06T08:11:22.560Z,3.00
2022-10-06T08:13:49.208Z,2.97
2022-10-06T08:16:18.580Z,2.80
2022-10-06T08:18:49.614Z,3.00
2022-10-06T08:21:17.842Z,2.77
2022-10-06T08:23:45.133Z,2.70
2022-10-06T08:26:12.398Z,3.27
2022-10-06T08:28:39.977Z,2.50
2022-10-06T08:31:08.008Z,2.50
2022-10-06T08:33:36.129Z,2.10
2022-10-06T08:36:08.738Z,2.50
2022-10-06T08:38:36.633Z,2.47
2022-10-06T08:41:26.569Z,2.00
2022-10-06T08:43:56.801Z,2.50
2022-10-06T08:46:25.437Z,2.17
2022-10-06T08:48:55.116Z,2.50
2022-10-06T08:51:25.651Z,2.50
2022-10-06T08:54:18.550Z,2.60
2022-10-06T08:56:54.288Z,2.67
2022-10-06T08:59:21.249Z,2.20
2022-10-06T09:01:48.901Z,2.53
2022-10-06T09:04:23.313Z,2.40
2022-10-06T09:06:55.821Z,2.40
2022-10-06T09:09:29.297Z,3.10
2022-10-06T09:12:01.880Z,2.60
2022-10-06T09:14:40.530Z,2.63
2022-10-06T09:17:11.326Z,2.60
2022-10-06T09:19:41.460Z,2.03
2022-10-06T09:22:13.468Z,2.33
2022-10-06T09:24:49.530Z,2.63
2022-10-06T09:27:21.081Z,2.33
2022-10-06T09:29:50.519Z,2.80
2022-10-06T09:32:18.435Z,2.00
2022-10-06T09:34:45.666Z,2.50
2022-10-06T09:37:13.521Z,2.40
2022-10-06T09:39:41.550Z,2.40
2022-10-06T09:42:09.750Z,2.90
2022-10-06T09:47:45.106Z,1.93
2022-10-06T09:50:14.510Z,1.90
2022-10-06T09:52:41.916Z,2.13
2022-10-06T09:55:17.596Z,1.93
2022-10-06T09:57:51.651Z,1.77
2022-10-06T10:00:38.970Z,2.03
2022-10-06T10:03:06.923Z,3.93
2022-10-06T10:05:34.536Z,1.90
2022-10-06T10:08:11.561Z,1.63
2022-10-06T10:10:38.839Z,1.67
2022-10-06T10:13:18.670Z,2.00
2022-10-06T10:16:01.728Z,1.73
2022-10-06T10:18:30.197Z,2.37
2022-10-06T10:20:57.975Z,1.80
2022-10-06T10:23:30.156Z,1.77
2022-10-06T10:26:01.333Z,2.50
2022-10-06T10:28:48.119Z,1.60
2022-10-06T10:31:21.905Z,1.97
2022-10-06T10:34:12.517Z,2.93
2022-10-06T10:36:51.607Z,2.40
2022-10-06T10:39:32.679Z,1.93
2022-10-06T10:42:02.917Z,1.90
2022-10-06T10:44:31.936Z,1.87
2022-10-06T10:47:25.929Z,1.70
2022-10-06T10:49:58.790Z,1.83
2022-10-06T10:52:28.490Z,2.30
2022-10-06T10:54:55.062Z,1.90
2022-10-06T10:57:23.461Z,1.50
2022-10-06T10:59:50.561Z,1.93
2022-10-06T11:02:19.462Z,1.53
2022-10-06T11:04:51.076Z,1.60
2022-10-06T11:07:19.574Z,1.70
2022-10-06T11:10:03.378Z,2.37
2022-10-06T11:12:41.217Z,3.33
2022-10-06T11:15:08.645Z,1.80
2022-10-06T11:17:44.419Z,1.63
2022-10-06T11:20:21.953Z,1.60
2022-10-06T11:22:59.674Z,1.40
2022-10-06T11:25:27.536Z,1.43
2022-10-06T11:28:07.914Z,1.43
2022-10-06T11:30:36.470Z,1.40
2022-10-06T11:33:22.086Z,1.60
2022-10-06T11:35:48.888Z,1.57
2022-10-06T11:38:24.664Z,1.40
2022-10-06T11:41:10.402Z,1.20
2022-10-06T11:43:55.131Z,1.47
2022-10-06T11:46:28.384Z,1.87
2022-10-06T11:49:16.445Z,1.60
2022-10-06T11:51:44.575Z,2.10
2022-10-06T11:54:32.870Z,1.40
2022-10-06T11:56:59.639Z,1.87
2022-10-06T11:59:27.314Z,1.60
2022-10-06T12:01:55.753Z,1.47
2022-10-06T12:04:24.733Z,1.40
2022-10-06T12:06:52.778Z,1.20
2022-10-06T12:09:29.620Z,1.50
2022-10-06T12:12:00.836Z,1.50
2022-10-06T12:17:40.703Z,1.50
2022-10-06T12:20:18.757Z,1.10
2022-10-06T12:23:04.823Z,1.43
2022-10-06T12:25:39.564Z,1.77
2022-10-06T12:28:21.904Z,1.70
2022-10-06T12:30:49.594Z,1.40
2022-10-06T12:33:17.480Z,1.40
2022-10-06T12:35:44.867Z,1.30
2022-10-06T12:38:30.210Z,1.60
2022-10-06T12:40:57.592Z,1.40
2022-10-06T12:43:24.021Z,1.60
2022-10-06T12:46:04.731Z,1.70
2022-10-06T12:48:43.683Z,1.83
2022-10-06T12:51:16.071Z,1.17
2022-10-06T12:53:51.668Z,1.93
2022-10-06T12:56:38.277Z,1.67
2022-10-06T12:59:23.828Z,1.50
2022-10-06T13:02:00.027Z,1.77
2022-10-06T13:04:34.702Z,1.90
2022-10-06T13:07:22.919Z,1.57
2022-10-06T13:09:53.692Z,1.70
2022-10-06T13:12:38.043Z,1.50
2022-10-06T13:15:13.810Z,2.50
2022-10-06T13:17:46.453Z,1.97
2022-10-06T13:20:20.664Z,1.77
2022-10-06T13:22:57.861Z,1.70
2022-10-06T13:25:24.560Z,1.70
2022-10-06T13:27:51.465Z,2.03
2022-10-06T13:30:22.194Z,1.50
2022-10-06T13:32:54.093Z,1.77
2022-10-06T13:35:25.794Z,1.60
2022-10-06T13:37:53.120Z,1.10
2022-10-06T13:40:44.155Z,1.60
2022-10-06T13:43:15.047Z,1.40
2022-10-06T13:45:43.845Z,1.50
2022-10-06T13:48:17.855Z,1.50
2022-10-06T13:50:47.009Z,1.27
2022-10-06T13:53:43.436Z,1.67
2022-10-06T13:58:56.430Z,1.20
2022-10-06T14:01:32.778Z,1.40
2022-10-06T14:04:19.319Z,1.40
2022-10-06T14:09:50.001Z,1.10
2022-10-06T14:12:19.319Z,1.20
2022-10-06T14:14:48.497Z,1.00
2022-10-06T14:17:23.975Z,1.70
2022-10-06T14:19:51.158Z,1.13
2022-10-06T14:22:32.478Z,1.33
2022-10-06T14:25:13.109Z,1.50
2022-10-06T14:27:39.718Z,1.33
2022-10-06T14:30:06.628Z,1.20
2022-10-06T14:32:33.121Z,1.30
2022-10-06T14:35:00.498Z,1.30
2022-10-06T14:37:26.978Z,1.30
2022-10-06T14:39:55.848Z,1.47
2022-10-06T14:42:26.256Z,1.23
2022-10-06T14:44:53.740Z,1.40
2022-10-06T14:47:20.166Z,1.30
2022-10-06T14:49:48.107Z,1.40
2022-10-06T14:52:14.896Z,1.30
2022-10-06T14:54:42.997Z,1.40
2022-10-06T14:57:10.086Z,1.37
2022-10-06T14:59:37.093Z,1.80
2022-10-06T15:02:03.550Z,1.37
2022-10-06T15:04:31.261Z,1.30
2022-10-06T15:07:19.477Z,1.60
2022-10-06T15:09:48.506Z,1.60
2022-10-06T15:12:15.053Z,1.30
2022-10-06T15:14:41.692Z,1.20
2022-10-06T15:17:08.194Z,1.50
2022-10-06T15:19:34.713Z,1.37
2022-10-06T15:22:03.883Z,1.70
2022-10-06T15:24:30.490Z,1.80
2022-10-06T15:27:15.655Z,1.70
2022-10-06T15:29:42.719Z,1.13
2022-10-06T15:32:09.547Z,1.20
2022-10-06T15:34:37.748Z,1.73
2022-10-06T15:37:04.332Z,2.10
2022-10-06T15:39:33.956Z,1.97
2022-10-06T15:42:00.600Z,1.40
2022-10-06T15:44:27.945Z,1.93
2022-10-06T15:46:55.470Z,1.77
2022-10-06T15:49:22.937Z,1.63
2022-10-06T15:51:53.613Z,1.40
2022-10-06T15:54:22.280Z,1.37
2022-10-06T15:56:49.949Z,1.20
2022-10-06T15:59:17.733Z,1.30
2022-10-06T16:01:46.986Z,1.80
2022-10-06T16:04:19.659Z,2.00
2022-10-06T16:06:56.129Z,1.80
2022-10-06T16:09:25.416Z,1.97
2022-10-06T16:11:52.624Z,2.00
2022-10-06T16:14:20.847Z,2.37
2022-10-06T16:16:49.223Z,1.63
2022-10-06T16:19:17.159Z,2.00
2022-10-06T16:21:44.088Z,2.03
2022-10-06T16:24:10.840Z,1.57
2022-10-06T16:26:38.284Z,1.30
2022-10-06T16:29:06.410Z,1.70
2022-10-06T16:31:45.835Z,1.50
2022-10-06T16:34:13.294Z,1.17
2022-10-06T16:36:39.998Z,1.30
2022-10-06T16:39:07.427Z,1.37
2022-10-06T16:41:37.891Z,1.30
2022-10-06T16:44:05.585Z,1.67
2022-10-06T16:46:32.585Z,1.90
2022-10-06T16:49:01.390Z,1.80
2022-10-06T16:51:32.201Z,2.50
2022-10-06T16:54:02.794Z,2.03
2022-10-06T16:56:33.979Z,2.30
2022-10-06T16:59:03.755Z,2.03
2022-10-06T17:01:32.426Z,1.90
2022-10-06T17:04:05.293Z,1.80
2022-10-06T17:06:39.159Z,2.07
2022-10-06T17:09:09.718Z,2.50
2022-10-06T17:11:36.227Z,3.60
2022-10-06T17:14:03.294Z,4.53
2022-10-06T17:16:31.323Z,2.77
2022-10-06T17:18:58.408Z,2.10
2022-10-06T17:21:45.030Z,2.03
2022-10-06T17:24:17.510Z,1.80
2022-10-06T17:26:47.174Z,2.73
2022-10-06T17:29:15.329Z,2.40
2022-10-06T17:31:42.957Z,2.33
2022-10-06T17:34:11.973Z,2.30
2022-10-06T17:36:41.627Z,2.60
2022-10-06T17:39:10.672Z,2.20
2022-10-06T17:41:41.353Z,1.80
2022-10-06T17:44:09.164Z,1.97
2022-10-06T17:46:39.735Z,2.63
2022-10-06T17:49:08.552Z,3.30
2022-10-06T17:51:38.952Z,3.40
2022-10-06T17:54:07.341Z,2.70
2022-10-06T17:56:36.773Z,2.70
2022-10-06T17:59:07.838Z,2.97
2022-10-06T18:01:35.861Z,2.70
2022-10-06T18:04:05.506Z,1.90
2022-10-06T18:06:33.983Z,2.60
2022-10-06T18:09:02.461Z,3.13
2022-10-06T18:11:34.715Z,2.50
2022-10-06T18:14:01.242Z,2.60
2022-10-06T18:16:31.152Z,2.53
2022-10-06T18:19:03.901Z,2.60
2022-10-06T18:21:37.496Z,2.83
2022-10-06T18:24:12.694Z,2.57
2022-10-06T18:26:41.824Z,2.57
2022-10-06T18:29:09.160Z,2.47
2022-10-06T18:31:40.177Z,2.37
2022-10-06T18:36:54.231Z,2.80
2022-10-06T18:39:21.457Z,3.30
2022-10-06T18:41:55.848Z,3.40
2022-10-06T18:44:41.371Z,3.40
2022-10-06T18:47:26.928Z,3.30
2022-10-06T18:49:56.242Z,3.60
2022-10-06T18:52:25.107Z,3.83
2022-10-06T18:54:51.809Z,4.03
2022-10-06T18:57:20.033Z,4.17
2022-10-06T18:59:49.218Z,4.10
2022-10-06T19:02:16.743Z,4.67
2022-10-06T19:04:44.050Z,4.93
2022-10-06T19:07:10.462Z,5.17
2022-10-06T19:09:40.542Z,5.57
2022-10-06T19:12:12.177Z,4.93
2022-10-06T19:14:47.147Z,5.17
2022-10-06T19:17:15.749Z,5.10
2022-10-06T19:19:46.229Z,4.97
2022-10-06T19:22:14.240Z,5.67
2022-10-06T19:24:47.686Z,5.30
2022-10-06T19:27:15.919Z,5.10
2022-10-06T19:29:46.020Z,5.43
2022-10-06T19:32:17.914Z,5.30
2022-10-06T19:34:44.632Z,4.87
2022-10-06T19:37:14.766Z,5.17
2022-10-06T19:39:43.031Z,5.07
2022-10-06T19:42:32.724Z,5.37
2022-10-06T19:44:59.557Z,5.53
2022-10-06T19:47:27.419Z,5.33
2022-10-06T19:50:02.107Z,5.97
2022-10-06T19:52:31.395Z,5.87
2022-10-06T19:54:58.518Z,5.50
2022-10-06T19:57:28.461Z,5.23
2022-10-06T19:59:54.989Z,5.33
2022-10-06T20:02:21.527Z,5.17
2022-10-06T20:04:48.124Z,6.13
2022-10-06T20:07:14.767Z,5.33
2022-10-06T20:09:41.260Z,5.03
2022-10-06T20:12:07.819Z,4.67
2022-10-06T20:14:34.618Z,4.77
2022-10-06T20:17:02.873Z,4.93
2022-10-06T20:19:29.640Z,4.80
2022-10-06T20:21:56.607Z,5.00
2022-10-06T20:24:25.660Z,4.40
2022-10-06T20:26:53.716Z,4.30
2022-10-06T20:29:22.936Z,4.43
2022-10-06T20:31:53.385Z,4.57
2022-10-06T20:34:21.922Z,4.37
2022-10-06T20:36:53.110Z,4.43
2022-10-06T20:39:40.776Z,4.27
2022-10-06T20:42:13.948Z,4.87
2022-10-06T20:44:42.749Z,3.90
2022-10-06T20:47:10.467Z,3.70
2022-10-06T20:49:37.467Z,3.67
2022-10-06T20:52:04.983Z,3.77
2022-10-06T20:54:34.862Z,3.23
2022-10-06T20:57:02.806Z,3.43
2022-10-06T20:59:30.725Z,3.47
2022-10-06T21:01:59.923Z,3.47
2022-10-06T21:04:29.953Z,4.10
2022-10-06T21:06:57.184Z,4.37
2022-10-06T21:09:24.498Z,4.57
2022-10-06T21:11:51.215Z,4.20
2022-10-06T21:14:20.848Z,4.10
2022-10-06T21:16:48.370Z,4.10
2022-10-06T21:19:16.751Z,4.03
2022-10-06T21:21:44.578Z,3.80
2022-10-06T21:24:11.335Z,3.67
2022-10-06T21:26:42.378Z,4.27
2022-10-06T21:29:16.121Z,3.90
2022-10-06T21:31:43.762Z,4.37
2022-10-06T21:34:11.798Z,3.87
2022-10-06T21:36:42.363Z,4.13
2022-10-06T21:39:09.059Z,4.07
2022-10-06T21:41:39.775Z,3.73
2022-10-06T21:44:16.634Z,4.30
2022-10-06T21:46:46.457Z,4.10
2022-10-06T21:49:14.647Z,4.37
2022-10-06T21:51:42.856Z,4.10
2022-10-06T21:54:10.468Z,4.13
2022-10-06T21:56:36.993Z,4.40
2022-10-06T21:59:04.657Z,4.17
2022-10-06T22:01:32.736Z,4.40
2022-10-06T22:04:00.315Z,4.40
2022-10-06T22:06:27.326Z,4.27
2022-10-06T22:08:54.031Z,4.10
2022-10-06T22:11:21.864Z,4.03
2022-10-06T22:13:51.553Z,3.93
2022-10-06T22:16:20.636Z,3.80
2022-10-06T22:18:47.613Z,3.60
2022-10-06T22:21:14.095Z,4.20
2022-10-06T22:23:41.450Z,4.10
2022-10-06T22:26:08.588Z,4.50
2022-10-06T22:28:35.598Z,4.17
2022-10-06T22:31:03.342Z,4.37
2022-10-06T22:33:30.339Z,4.50
2022-10-06T22:35:56.857Z,4.47
2022-10-06T22:38:23.300Z,3.70
2022-10-06T22:40:49.858Z,4.40
2022-10-06T22:43:17.197Z,3.80
2022-10-06T22:45:43.664Z,4.03
2022-10-06T22:48:10.100Z,3.27
2022-10-06T22:50:37.769Z,3.93
2022-10-06T22:53:04.433Z,4.13
2022-10-06T22:55:30.999Z,4.20
2022-10-06T22:57:57.589Z,4.53
2022-10-06T23:00:24.394Z,4.50
2022-10-06T23:02:51.007Z,4.07
2022-10-06T23:05:17.505Z,4.00
2022-10-06T23:07:44.094Z,3.77
2022-10-06T23:10:10.769Z,3.63
2022-10-06T23:12:37.734Z,3.40
2022-10-06T23:15:04.622Z,3.80
2022-10-06T23:17:31.047Z,3.90
2022-10-06T23:19:59.958Z,3.70
2022-10-06T23:22:27.257Z,3.70
2022-10-06T23:24:53.808Z,3.70
2022-10-06T23:27:20.388Z,4.03
2022-10-06T23:29:46.941Z,3.37
2022-10-06T23:32:13.328Z,3.67
2022-10-06T23:34:40.754Z,3.87
2022-10-06T23:37:07.138Z,3.73
2022-10-06T23:39:33.533Z,3.27
2022-10-06T23:42:00.664Z,3.50
2022-10-06T23:44:27.152Z,3.47
2022-10-06T23:46:53.733Z,3.33
2022-10-06T23:49:20.388Z,2.70
2022-10-06T23:51:47.096Z,3.40
2022-10-06T23:54:13.560Z,3.13
2022-10-06T23:56:43.131Z,3.03
2022-10-06T23:59:09.574Z,2.93
